Terminal Aerodrome Forecast
Issued by NWS Pendleton, OR

Home | Current Version | Previous Version | Text Only | Print | Product List | Glossary On
Versions: 1 2 3 4 5 6 7 8 9 10 11 12 13 14
000
FTUS46 KPDT 292320
TAFPDT
TAF
KPDT 292320Z 3000/3024 30016G24KT P6SM BKN100
     FM300300 28010KT P6SM BKN100
     FM300600 20008KT P6SM BKN080
     FM301500 24013KT P6SM -RA OVC050
     FM301900 26016G24KT P6SM SCT050 BKN080=

USA.gov is the U.S. government's official web portal to all federal, state and local government web resources and services.